Time;durP1;ratioP1;P1;durP2;ratioP2;P2;SDS_P1;SDS_P2;PMS_P1;PMS_P2;Temp;Humidity;BMP_temperature;BMP_pressure;BME280_temperature;BME280_humidity;BME280_pressure;Samples;Min_cycle;Max_cycle;Signal;HPM_P1;HPM_P2
2022/07/16 00:01:22;;;;;;;8.20;5.77;;;12.30;99.90;;;;;;5076397;28;20286;-77
2022/07/16 00:01:56;;;;;;;6.67;5.70;;;12.20;99.90;;;;;;5076406;28;20203;-77
2022/07/16 00:04:23;;;;;;;8.40;5.93;;;12.20;99.90;;;;;;5076306;28;20201;-77
2022/07/16 00:06:50;;;;;;;8.53;6.80;;;12.20;99.90;;;;;;5076369;28;20197;-76
2022/07/16 00:09:18;;;;;;;9.73;6.73;;;12.30;99.90;;;;;;5076224;28;20197;-77
2022/07/16 00:11:44;;;;;;;10.13;6.30;;;12.50;99.90;;;;;;5076195;28;20656;-77
2022/07/16 00:14:11;;;;;;;7.53;6.07;;;12.60;99.90;;;;;;5076313;28;20201;-77
2022/07/16 00:16:38;;;;;;;9.13;6.37;;;12.60;99.90;;;;;;5076354;28;20193;-76
2022/07/16 00:19:19;;;;;;;6.70;5.90;;;12.40;99.90;;;;;;5076121;28;20229;-76
2022/07/16 00:21:48;;;;;;;7.47;6.00;;;12.30;99.90;;;;;;5076124;28;20692;-77
2022/07/16 00:24:15;;;;;;;8.47;5.50;;;12.10;99.90;;;;;;5075952;28;20205;-77
2022/07/16 00:26:43;;;;;;;8.70;5.80;;;12.00;99.90;;;;;;5076158;28;20255;-77
2022/07/16 00:29:10;;;;;;;10.57;5.67;;;12.00;99.90;;;;;;5076034;28;20295;-76
2022/07/16 00:31:37;;;;;;;10.17;5.73;;;12.00;99.90;;;;;;5075949;28;20231;-76
2022/07/16 00:34:07;;;;;;;6.47;5.73;;;11.90;99.90;;;;;;5075925;28;20197;-76
2022/07/16 00:36:34;;;;;;;10.67;5.80;;;11.80;99.90;;;;;;5075752;28;20193;-76
2022/07/16 00:39:00;;;;;;;9.40;5.90;;;11.70;99.90;;;;;;5075025;28;20262;-77
2022/07/16 00:41:27;;;;;;;8.93;6.20;;;11.80;99.90;;;;;;5074686;28;20197;-76
2022/07/16 00:43:59;;;;;;;6.63;5.97;;;11.70;99.90;;;;;;5074844;28;20197;-77
2022/07/16 00:46:26;;;;;;;11.27;6.67;;;11.60;99.90;;;;;;5074708;28;20288;-77
2022/07/16 00:48:53;;;;;;;9.23;6.00;;;11.60;99.90;;;;;;5074415;28;20197;-76
2022/07/16 00:51:22;;;;;;;7.37;6.57;;;11.60;99.90;;;;;;5074589;28;20201;-77
2022/07/16 00:53:48;;;;;;;7.40;6.03;;;11.60;99.90;;;;;;5074252;28;20200;-76
2022/07/16 00:56:16;;;;;;;8.23;5.93;;;11.60;99.90;;;;;;5074054;28;20206;-77
2022/07/16 00:58:47;;;;;;;9.87;6.23;;;11.50;99.90;;;;;;5074120;28;20266;-77
2022/07/16 01:01:16;;;;;;;8.10;6.00;;;11.50;99.90;;;;;;5074281;28;20250;-77
2022/07/16 01:03:44;;;;;;;7.97;6.20;;;11.50;99.90;;;;;;5074117;28;20201;-76
2022/07/16 01:06:12;;;;;;;7.70;6.17;;;11.60;99.90;;;;;;5074384;28;20197;-76
2022/07/16 01:08:42;;;;;;;6.70;6.00;;;11.60;99.90;;;;;;5074251;28;20255;-77
2022/07/16 01:11:11;;;;;;;8.07;5.67;;;11.60;99.90;;;;;;5074193;28;20266;-77
2022/07/16 01:13:39;;;;;;;7.93;6.00;;;11.80;99.90;;;;;;5074045;28;20251;-77
2022/07/16 01:16:08;;;;;;;7.40;6.10;;;11.70;99.90;;;;;;5073901;28;20244;-77
2022/07/16 01:18:37;;;;;;;9.23;6.47;;;11.60;99.90;;;;;;5074026;28;20221;-77
2022/07/16 01:21:04;;;;;;;6.17;5.57;;;11.50;99.90;;;;;;5074087;28;20201;-77
2022/07/16 01:23:32;;;;;;;9.70;6.17;;;11.30;99.90;;;;;;5073898;28;20538;-76
2022/07/16 01:25:59;;;;;;;9.03;6.47;;;11.30;99.90;;;;;;5073942;28;20193;-77
2022/07/16 01:28:26;;;;;;;7.13;6.43;;;11.30;99.90;;;;;;5073871;28;20201;-77
2022/07/16 01:30:53;;;;;;;8.37;5.53;;;11.20;99.90;;;;;;5073987;28;20205;-77
2022/07/16 01:33:25;;;;;;;10.10;6.23;;;11.10;99.90;;;;;;5073803;28;20250;-76
2022/07/16 01:35:54;;;;;;;7.80;6.30;;;11.00;99.90;;;;;;5073863;28;20254;-77
2022/07/16 01:38:21;;;;;;;9.00;6.40;;;11.00;99.90;;;;;;5038056;28;1019907;-77
2022/07/16 01:40:49;;;;;;;11.47;6.60;;;10.90;99.90;;;;;;5074610;28;20611;-77
2022/07/16 01:43:19;;;;;;;10.73;6.40;;;10.70;99.90;;;;;;5074524;28;20205;-77
2022/07/16 01:45:46;;;;;;;9.50;6.40;;;10.70;99.90;;;;;;5074694;28;20258;-76
2022/07/16 01:48:14;;;;;;;10.53;6.43;;;10.60;99.90;;;;;;5074624;28;20200;-77
2022/07/16 01:50:42;;;;;;;6.77;5.73;;;10.60;99.90;;;;;;5074481;28;20239;-77
2022/07/16 01:53:09;;;;;;;7.87;5.80;;;10.60;99.90;;;;;;5074512;28;20223;-77
2022/07/16 01:55:37;;;;;;;7.63;6.50;;;10.60;99.90;;;;;;5074286;28;20243;-76
2022/07/16 01:58:06;;;;;;;11.80;6.00;;;10.50;99.90;;;;;;5074344;28;20247;-77
2022/07/16 02:00:34;;;;;;;8.97;6.57;;;10.50;99.90;;;;;;5074271;28;20276;-77
2022/07/16 02:03:01;;;;;;;6.40;5.70;;;10.50;99.90;;;;;;5074208;28;20648;-77
2022/07/16 02:05:28;;;;;;;9.27;7.00;;;10.50;99.90;;;;;;5074140;28;20587;-76
2022/07/16 02:07:54;;;;;;;7.20;6.27;;;10.40;99.90;;;;;;5073568;28;20201;-77
2022/07/16 02:10:21;;;;;;;7.23;5.60;;;10.30;99.90;;;;;;5073872;28;20267;-77
2022/07/16 02:12:48;;;;;;;7.90;6.30;;;10.20;99.90;;;;;;5074226;28;20197;-77
2022/07/16 02:15:16;;;;;;;6.90;6.17;;;10.30;99.90;;;;;;5074140;28;20193;-77
2022/07/16 02:17:43;;;;;;;7.83;6.47;;;10.30;99.90;;;;;;5074012;28;20197;-76
2022/07/16 02:20:11;;;;;;;9.03;6.10;;;10.20;99.90;;;;;;5073857;28;20362;-76
2022/07/16 02:22:38;;;;;;;9.07;6.10;;;10.30;99.90;;;;;;5074093;28;20207;-77
2022/07/16 02:25:08;;;;;;;8.33;5.77;;;10.50;99.90;;;;;;5073778;28;20203;-77
2022/07/16 02:27:35;;;;;;;9.77;5.70;;;10.80;99.90;;;;;;5073798;28;20197;-77
2022/07/16 02:30:01;;;;;;;9.57;6.30;;;10.80;99.90;;;;;;5073826;28;20284;-77
2022/07/16 02:32:29;;;;;;;8.17;5.67;;;10.90;99.90;;;;;;5073818;28;20251;-77
2022/07/16 02:34:56;;;;;;;8.83;6.63;;;10.90;99.90;;;;;;5073754;28;20193;-77
2022/07/16 02:37:23;;;;;;;10.77;7.10;;;10.90;99.90;;;;;;5073464;28;20205;-76
2022/07/16 02:39:49;;;;;;;8.83;5.93;;;10.80;99.90;;;;;;5073498;28;20323;-77
2022/07/16 02:42:16;;;;;;;7.13;6.17;;;10.80;99.90;;;;;;5073551;28;20193;-77
2022/07/16 02:44:43;;;;;;;7.13;5.83;;;10.70;99.90;;;;;;5073494;28;20201;-77
2022/07/16 02:47:09;;;;;;;7.50;6.40;;;10.60;99.90;;;;;;5073522;28;20193;-77
2022/07/16 02:49:37;;;;;;;7.70;6.20;;;10.40;99.90;;;;;;5073305;28;20542;-77
2022/07/16 02:52:04;;;;;;;8.50;5.77;;;10.30;99.90;;;;;;5073246;28;20201;-76
2022/07/16 02:54:31;;;;;;;7.73;6.23;;;10.20;99.90;;;;;;5073405;28;20201;-76
2022/07/16 02:56:58;;;;;;;10.87;6.07;;;10.10;99.90;;;;;;5073193;28;20263;-77
2022/07/16 02:59:24;;;;;;;11.47;6.40;;;10.10;99.90;;;;;;5073160;28;20268;-77
2022/07/16 03:01:51;;;;;;;7.43;6.17;;;10.00;99.90;;;;;;5073132;28;20197;-76
2022/07/16 03:04:17;;;;;;;6.60;5.90;;;10.00;99.90;;;;;;5073081;28;20910;-76
2022/07/16 03:06:45;;;;;;;7.10;6.10;;;9.90;99.90;;;;;;5073347;28;20262;-77
2022/07/16 03:09:13;;;;;;;8.77;6.27;;;9.90;99.90;;;;;;5073193;28;20251;-76
2022/07/16 03:11:40;;;;;;;10.73;6.10;;;10.10;99.90;;;;;;5073409;28;20201;-77
2022/07/16 03:14:06;;;;;;;8.60;6.30;;;10.10;99.90;;;;;;5073136;28;20243;-77
2022/07/16 03:16:33;;;;;;;7.77;7.03;;;10.10;99.90;;;;;;5072985;28;20267;-76
2022/07/16 03:19:00;;;;;;;11.03;7.43;;;9.90;99.90;;;;;;5072668;28;20192;-76
2022/07/16 03:21:26;;;;;;;10.33;7.33;;;9.80;99.90;;;;;;5073012;28;20197;-77
2022/07/16 03:23:54;;;;;;;14.60;7.00;;;9.80;99.90;;;;;;5072780;28;20722;-77
2022/07/16 03:26:21;;;;;;;7.70;6.17;;;9.70;99.90;;;;;;5072945;28;20201;-77
2022/07/16 03:28:47;;;;;;;8.27;6.00;;;9.70;99.90;;;;;;5072973;28;20197;-77
2022/07/16 03:31:17;;;;;;;8.40;6.50;;;9.70;99.90;;;;;;5072836;28;20200;-77
2022/07/16 03:33:43;;;;;;;7.87;6.47;;;9.60;99.90;;;;;;5072715;28;20228;-76
2022/07/16 03:36:10;;;;;;;11.37;6.83;;;9.80;99.90;;;;;;5072659;28;20525;-76
2022/07/16 03:41:22;;;;;;;9.37;7.23;;;9.70;99.90;;;;;;5072824;28;20208;-77
2022/07/16 03:43:49;;;;;;;11.53;7.57;;;9.70;99.90;;;;;;5072674;28;20201;-77
2022/07/16 03:46:15;;;;;;;10.80;7.40;;;9.70;99.90;;;;;;5072633;28;20197;-77
2022/07/16 03:48:42;;;;;;;10.97;7.03;;;9.60;99.90;;;;;;5072785;28;20254;-76
2022/07/16 03:51:10;;;;;;;10.43;6.57;;;9.70;99.90;;;;;;5072744;28;20204;-77
2022/07/16 03:53:38;;;;;;;9.17;7.33;;;9.60;99.90;;;;;;5072501;28;20675;-77
2022/07/16 03:56:05;;;;;;;8.30;6.17;;;9.50;99.90;;;;;;5072631;28;20246;-77
2022/07/16 03:58:33;;;;;;;8.67;5.97;;;9.30;99.90;;;;;;5072544;28;20197;-76
2022/07/16 04:01:00;;;;;;;10.53;6.57;;;9.30;99.90;;;;;;5072398;28;20228;-77
2022/07/16 04:03:27;;;;;;;8.07;6.40;;;9.30;99.90;;;;;;5072632;28;20243;-76
2022/07/16 04:05:54;;;;;;;10.07;6.60;;;9.20;99.90;;;;;;5072570;28;20208;-77
2022/07/16 04:08:21;;;;;;;8.93;6.43;;;9.20;99.90;;;;;;5072517;28;20197;-77
2022/07/16 04:10:47;;;;;;;11.33;6.73;;;9.30;99.90;;;;;;5072469;28;20197;-77
2022/07/16 04:13:14;;;;;;;9.90;6.77;;;9.30;99.90;;;;;;5072384;28;20610;-76
2022/07/16 04:15:42;;;;;;;9.70;6.63;;;9.30;99.90;;;;;;5072599;28;20247;-77
2022/07/16 04:18:09;;;;;;;9.03;6.70;;;9.30;99.90;;;;;;5072475;28;20201;-77
2022/07/16 04:20:35;;;;;;;9.13;6.20;;;9.40;99.90;;;;;;5072091;28;20700;-76
2022/07/16 04:23:02;;;;;;;8.70;6.00;;;9.70;99.90;;;;;;5072347;28;20194;-76
2022/07/16 04:25:30;;;;;;;8.13;5.67;;;10.00;99.90;;;;;;5072137;28;20656;-77
2022/07/16 04:27:57;;;;;;;7.87;5.87;;;10.30;99.90;;;;;;5072186;28;20714;-77
2022/07/16 04:30:23;;;;;;;10.53;6.10;;;10.40;99.90;;;;;;5072350;28;20263;-76
2022/07/16 04:32:51;;;;;;;10.67;6.37;;;10.50;99.90;;;;;;5074985;28;20200;-77
2022/07/16 04:35:18;;;;;;;7.97;5.57;;;10.60;99.90;;;;;;5075950;28;20197;-77
2022/07/16 04:37:45;;;;;;;7.47;5.30;;;10.60;99.90;;;;;;5075857;28;20203;-77
2022/07/16 04:40:13;;;;;;;7.07;5.00;;;10.50;99.90;;;;;;5075627;28;20232;-77
2022/07/16 04:42:41;;;;;;;8.10;4.70;;;10.60;99.90;;;;;;5075548;28;20611;-76
2022/07/16 04:45:09;;;;;;;7.30;5.20;;;10.60;99.90;;;;;;5075798;28;20200;-77
2022/07/16 04:47:36;;;;;;;7.03;5.10;;;10.60;99.90;;;;;;5075889;28;20243;-76
2022/07/16 04:50:05;;;;;;;9.93;6.10;;;10.80;99.90;;;;;;5075519;28;20664;-77
2022/07/16 04:52:32;;;;;;;7.97;5.43;;;10.90;99.90;;;;;;5075639;28;20251;-77
2022/07/16 04:55:00;;;;;;;7.53;5.40;;;11.10;99.90;;;;;;5075411;28;20599;-76
2022/07/16 04:57:27;;;;;;;7.77;5.60;;;11.30;99.90;;;;;;5075336;28;20656;-76
2022/07/16 04:59:54;;;;;;;8.33;4.93;;;11.30;99.90;;;;;;5075459;28;20220;-76
2022/07/16 05:05:08;;;;;;;8.43;5.20;;;11.60;99.90;;;;;;5075459;28;20204;-76
2022/07/16 05:07:35;;;;;;;5.33;4.77;;;11.60;99.90;;;;;;5075245;28;20201;-77
2022/07/16 05:10:02;;;;;;;6.57;5.13;;;11.70;99.90;;;;;;5075382;28;20266;-76
2022/07/16 05:12:28;;;;;;;8.50;4.90;;;11.80;99.90;;;;;;5075382;28;20201;-77
2022/07/16 05:14:55;;;;;;;7.83;4.60;;;12.00;99.90;;;;;;5075236;28;20231;-76
2022/07/16 05:17:22;;;;;;;7.23;4.40;;;12.10;99.90;;;;;;5075065;28;20201;-77
2022/07/16 05:19:48;;;;;;;7.47;5.00;;;12.10;99.90;;;;;;5074884;28;20688;-76
2022/07/16 05:22:16;;;;;;;9.13;4.57;;;12.30;99.90;;;;;;5075097;28;20204;-77
2022/07/16 05:24:43;;;;;;;6.87;4.77;;;12.50;99.90;;;;;;5074966;28;20205;-76
2022/07/16 05:27:09;;;;;;;6.40;4.33;;;12.70;99.90;;;;;;5074989;28;20197;-76
2022/07/16 05:29:36;;;;;;;5.73;4.57;;;12.90;99.90;;;;;;5074868;28;20200;-76
2022/07/16 05:32:03;;;;;;;7.63;4.57;;;12.90;99.90;;;;;;5074727;28;20204;-76
2022/07/16 05:34:30;;;;;;;6.63;4.83;;;13.10;99.90;;;;;;5074606;28;20211;-76
2022/07/16 05:36:56;;;;;;;7.63;4.57;;;13.10;99.90;;;;;;5074471;28;20705;-76
2022/07/16 05:39:25;;;;;;;7.30;4.70;;;13.30;99.90;;;;;;5074607;28;20286;-76
2022/07/16 05:41:51;;;;;;;4.80;4.30;;;13.30;99.90;;;;;;5074630;28;20201;-75
2022/07/16 05:44:18;;;;;;;7.20;4.30;;;13.50;99.90;;;;;;5073659;28;20239;-77
2022/07/16 05:46:45;;;;;;;10.00;4.40;;;13.50;99.90;;;;;;5074351;28;20647;-76
2022/07/16 05:49:11;;;;;;;6.57;4.50;;;13.70;99.90;;;;;;5074128;28;20200;-76
2022/07/16 05:51:38;;;;;;;6.80;4.50;;;13.80;99.90;;;;;;5074488;28;20205;-76
2022/07/16 05:54:05;;;;;;;4.93;4.27;;;13.90;99.90;;;;;;5074613;28;20322;-75
2022/07/16 05:56:33;;;;;;;7.63;3.93;;;14.00;99.90;;;;;;5074483;28;20204;-76
2022/07/16 05:59:02;;;;;;;5.07;4.37;;;14.00;99.90;;;;;;5074516;28;20193;-76
2022/07/16 06:01:28;;;;;;;5.97;3.93;;;14.20;99.90;;;;;;5074343;28;20224;-76
2022/07/16 06:03:55;;;;;;;6.83;3.67;;;14.30;99.90;;;;;;5074974;28;20250;-75
2022/07/16 06:06:22;;;;;;;5.83;3.83;;;14.40;99.90;;;;;;5074041;28;20258;-76
2022/07/16 06:08:48;;;;;;;6.50;4.07;;;14.50;99.90;;;;;;5074033;28;20247;-75
2022/07/16 06:11:15;;;;;;;5.93;3.77;;;14.70;99.90;;;;;;5073953;28;20255;-75
2022/07/16 06:13:43;;;;;;;5.27;3.87;;;14.70;99.90;;;;;;5073812;28;20231;-75
2022/07/16 06:16:10;;;;;;;4.63;3.83;;;14.80;99.90;;;;;;5073613;28;20197;-75
2022/07/16 06:18:37;;;;;;;8.70;4.10;;;14.90;99.90;;;;;;5072743;28;20237;-75
2022/07/16 06:21:04;;;;;;;4.13;3.33;;;15.10;99.90;;;;;;5073303;28;20270;-75
2022/07/16 06:23:30;;;;;;;4.40;3.47;;;15.20;99.90;;;;;;5073834;28;20548;-76
2022/07/16 06:25:57;;;;;;;5.03;3.63;;;15.30;99.90;;;;;;5073388;28;20247;-75
2022/07/16 06:28:24;;;;;;;6.73;3.90;;;15.40;99.90;;;;;;5073360;28;20200;-76
2022/07/16 06:30:52;;;;;;;7.20;4.00;;;15.50;99.90;;;;;;5073194;28;20224;-77
2022/07/16 06:33:18;;;;;;;8.10;4.00;;;15.70;99.90;;;;;;5073415;28;20656;-77
2022/07/16 06:35:45;;;;;;;4.90;3.78;;;15.90;99.90;;;;;;5073533;28;20204;-76
2022/07/16 06:38:11;;;;;;;5.78;3.05;;;16.00;99.90;;;;;;5073301;28;20300;-76
2022/07/16 06:40:41;;;;;;;3.83;3.20;;;16.10;99.90;;;;;;5073158;28;20229;-73
2022/07/16 06:43:08;;;;;;;6.70;3.55;;;16.30;99.90;;;;;;5072998;28;20238;-75
2022/07/16 06:45:35;;;;;;;4.00;2.95;;;16.40;99.90;;;;;;5073346;28;20209;-76
2022/07/16 06:48:03;;;;;;;3.38;2.67;;;16.60;99.90;;;;;;5073317;28;20193;-80
2022/07/16 06:50:30;;;;;;;3.15;2.55;;;16.70;99.90;;;;;;5073100;28;20205;-81
2022/07/16 06:52:56;;;;;;;6.70;2.40;;;16.80;99.90;;;;;;5073138;28;20201;-80
2022/07/16 06:55:23;;;;;;;4.57;2.97;;;17.00;99.90;;;;;;5072567;28;20193;-81
2022/07/16 06:57:50;;;;;;;4.63;2.70;;;17.20;99.90;;;;;;5073070;28;20258;-79
2022/07/16 07:00:17;;;;;;;3.17;2.15;;;17.40;99.90;;;;;;5073012;28;20213;-78
2022/07/16 07:02:43;;;;;;;5.20;1.90;;;17.60;98.90;;;;;;5073241;28;20201;-78
2022/07/16 07:05:11;;;;;;;3.20;2.17;;;17.70;94.80;;;;;;5074459;28;20220;-80
2022/07/16 07:07:38;;;;;;;3.25;1.92;;;17.80;92.70;;;;;;5078178;28;20250;-79
2022/07/16 07:10:05;;;;;;;4.18;2.17;;;18.00;91.80;;;;;;5072964;28;20224;-80
2022/07/16 07:12:34;;;;;;;5.45;2.42;;;17.90;86.60;;;;;;5073324;28;20209;-80
2022/07/16 07:15:01;;;;;;;4.65;2.08;;;18.10;87.80;;;;;;5072861;28;20235;-79
2022/07/16 07:17:27;;;;;;;1.88;1.70;;;18.20;85.50;;;;;;5073749;28;20259;-80
2022/07/16 07:19:54;;;;;;;4.80;2.10;;;18.40;85.50;;;;;;5074506;28;20258;-80
2022/07/16 07:22:22;;;;;;;3.58;2.08;;;18.30;84.50;;;;;;5072697;28;20622;-80
2022/07/16 07:24:50;;;;;;;2.88;1.90;;;18.50;84.50;;;;;;5072798;28;20226;-79
2022/07/16 07:27:18;;;;;;;4.30;2.10;;;18.50;83.00;;;;;;5072700;28;20201;-80
2022/07/16 07:29:45;;;;;;;5.43;2.42;;;18.60;81.20;;;;;;5072829;28;20237;-80
2022/07/16 07:32:12;;;;;;;3.28;1.90;;;18.60;81.20;;;;;;5073076;28;20201;-80
2022/07/16 07:34:38;;;;;;;4.40;2.10;;;18.70;76.50;;;;;;5072745;28;20250;-80
2022/07/16 07:37:05;;;;;;;3.05;2.10;;;18.70;72.90;;;;;;5073059;28;20197;-80
2022/07/16 07:39:34;;;;;;;6.18;2.20;;;18.80;70.00;;;;;;5072413;28;20229;-80
2022/07/16 07:42:00;;;;;;;6.28;1.98;;;19.00;67.20;;;;;;5072772;28;20225;-80
2022/07/16 07:44:27;;;;;;;4.97;2.50;;;19.00;67.60;;;;;;5072354;28;20197;-80
2022/07/16 07:46:54;;;;;;;2.35;1.80;;;19.10;66.90;;;;;;5072928;28;20208;-81
2022/07/16 07:49:20;;;;;;;3.53;2.13;;;19.20;65.90;;;;;;5071667;28;20498;-81
2022/07/16 07:51:47;;;;;;;4.43;2.22;;;19.10;64.60;;;;;;5072241;28;20203;-80
2022/07/16 07:54:14;;;;;;;2.63;1.85;;;19.30;64.20;;;;;;5071692;28;20201;-80
2022/07/16 07:56:42;;;;;;;4.55;2.17;;;19.30;64.70;;;;;;5072572;28;20201;-80
2022/07/16 07:59:09;;;;;;;6.10;2.38;;;19.30;65.00;;;;;;5072462;28;20604;-81
2022/07/16 08:01:35;;;;;;;4.85;2.13;;;19.30;63.90;;;;;;5072484;28;20274;-80
2022/07/16 08:04:05;;;;;;;4.05;2.08;;;19.40;63.60;;;;;;5072504;28;20622;-79
2022/07/16 08:06:32;;;;;;;3.88;1.95;;;19.50;62.90;;;;;;5072904;28;20199;-79
2022/07/16 08:08:58;;;;;;;5.03;2.25;;;19.60;62.10;;;;;;5076374;28;20258;-80
2022/07/16 08:11:25;;;;;;;3.95;2.25;;;19.80;62.00;;;;;;5076315;28;20209;-80
2022/07/16 08:13:53;;;;;;;2.53;1.80;;;20.00;60.00;;;;;;5076223;28;20606;-80
2022/07/16 08:16:19;;;;;;;2.78;2.00;;;20.10;58.80;;;;;;5076162;28;20652;-79
2022/07/16 08:18:46;;;;;;;2.78;1.90;;;20.10;57.40;;;;;;5076083;28;20254;-80
2022/07/16 08:21:13;;;;;;;7.45;1.80;;;20.20;56.70;;;;;;5075666;28;20220;-79
2022/07/16 08:26:24;;;;;;;3.45;2.20;;;20.60;55.20;;;;;;5074761;28;20199;-79
2022/07/16 08:28:52;;;;;;;6.22;1.85;;;20.60;54.10;;;;;;5074600;28;20722;-79
2022/07/16 08:31:19;;;;;;;3.33;1.90;;;20.60;54.00;;;;;;5075380;28;20205;-79
2022/07/16 08:33:45;;;;;;;2.65;1.83;;;20.80;54.40;;;;;;5075140;28;20201;-79
2022/07/16 08:36:12;;;;;;;3.15;1.90;;;20.90;53.30;;;;;;5075705;28;20197;-79
2022/07/16 08:38:39;;;;;;;7.15;2.63;;;21.00;53.00;;;;;;5075692;28;20225;-79
2022/07/16 08:41:06;;;;;;;4.00;2.05;;;21.00;52.90;;;;;;5075602;28;20685;-79
2022/07/16 08:43:34;;;;;;;4.38;2.60;;;21.00;53.00;;;;;;5075628;28;20251;-79
2022/07/16 08:46:02;;;;;;;3.30;2.50;;;21.00;52.30;;;;;;5075458;28;20205;-80
2022/07/16 08:48:30;;;;;;;5.45;2.35;;;21.20;52.30;;;;;;5076184;28;20201;-79
2022/07/16 08:50:59;;;;;;;5.20;2.17;;;21.40;51.40;;;;;;5075701;28;20197;-80
2022/07/16 08:53:26;;;;;;;3.60;2.10;;;21.80;51.50;;;;;;5075637;28;20224;-80
2022/07/16 08:55:53;;;;;;;2.95;2.25;;;22.30;49.20;;;;;;5075587;28;20205;-80
2022/07/16 08:58:19;;;;;;;4.95;2.45;;;21.90;48.40;;;;;;5076300;28;20569;-80
2022/07/16 09:00:46;;;;;;;5.97;2.50;;;22.00;48.50;;;;;;5074953;28;20201;-80
2022/07/16 09:03:15;;;;;;;6.60;2.33;;;21.90;48.30;;;;;;5075269;28;20204;-80
2022/07/16 09:05:43;;;;;;;4.63;2.05;;;22.00;48.50;;;;;;5074943;28;20594;-80
2022/07/16 09:08:09;;;;;;;3.28;2.50;;;22.10;46.70;;;;;;5075030;28;20208;-80
2022/07/16 09:10:38;;;;;;;5.03;2.47;;;22.20;46.60;;;;;;5075045;28;20197;-80
2022/07/16 09:13:05;;;;;;;3.75;2.17;;;22.30;45.50;;;;;;5075089;28;20205;-80
2022/07/16 09:15:34;;;;;;;4.05;2.10;;;22.70;45.10;;;;;;5075398;28;20292;-80
2022/07/16 09:18:17;;;;;;;7.00;2.40;;;23.00;44.10;;;;;;5074746;28;20722;-80
2022/07/16 09:20:48;;;;;;;4.50;2.03;;;22.80;44.10;;;;;;5074746;28;20197;-80
2022/07/16 09:23:24;;;;;;;4.22;2.05;;;22.70;43.40;;;;;;5074790;28;20212;-80
2022/07/16 09:25:54;;;;;;;4.38;2.17;;;22.90;43.10;;;;;;5073622;28;20254;-80
2022/07/16 09:28:21;;;;;;;2.58;1.98;;;23.00;42.80;;;;;;5074521;28;20193;-80
2022/07/16 09:30:48;;;;;;;4.05;2.10;;;23.30;42.60;;;;;;5074631;28;20269;-79
2022/07/16 09:33:18;;;;;;;4.80;1.92;;;23.50;42.50;;;;;;5074194;28;20615;-79
2022/07/16 09:35:46;;;;;;;3.30;1.67;;;23.70;42.10;;;;;;5074272;28;20737;-80
2022/07/16 09:38:13;;;;;;;3.92;2.13;;;23.90;40.20;;;;;;5074021;28;20580;-82
2022/07/16 09:40:44;;;;;;;4.93;1.80;;;24.50;38.20;;;;;;5075787;28;20193;-81
2022/07/16 09:43:22;;;;;;;3.08;1.70;;;24.20;36.40;;;;;;5074340;28;20258;-80
2022/07/16 09:45:50;;;;;;;3.63;1.60;;;23.50;34.90;;;;;;5075311;28;20200;-80
2022/07/16 09:48:24;;;;;;;3.67;1.90;;;22.50;37.80;;;;;;5074338;28;20196;-79
2022/07/16 09:50:52;;;;;;;2.38;1.83;;;22.40;38.30;;;;;;5074418;28;20686;-79
2022/07/16 09:53:20;;;;;;;3.38;1.83;;;22.90;38.50;;;;;;5074218;28;20599;-81
2022/07/16 09:55:59;;;;;;;2.70;1.77;;;23.50;37.80;;;;;;5074225;28;20566;-79
2022/07/16 09:58:26;;;;;;;3.15;1.60;;;24.30;36.80;;;;;;5074068;28;20204;-80
2022/07/16 10:00:53;;;;;;;2.30;1.77;;;25.10;35.10;;;;;;5080885;28;20317;-80
2022/07/16 10:03:22;;;;;;;2.88;1.85;;;25.20;33.40;;;;;;5094244;28;20598;-81
2022/07/16 10:05:49;;;;;;;3.97;2.00;;;24.50;33.70;;;;;;5094726;28;20204;-80
2022/07/16 10:08:16;;;;;;;3.08;1.90;;;24.50;33.90;;;;;;5094037;28;20253;-81
2022/07/16 10:10:43;;;;;;;3.20;1.52;;;25.00;34.10;;;;;;5094403;28;20197;-79
2022/07/16 10:13:11;;;;;;;2.42;1.77;;;25.40;33.80;;;;;;5094449;28;20200;-79
2022/07/16 10:15:39;;;;;;;2.20;1.50;;;24.90;32.80;;;;;;5094190;28;20196;-78
2022/07/16 10:18:37;;;;;;;2.47;1.80;;;24.40;34.20;;;;;;5094535;28;20273;-81
2022/07/16 10:21:10;;;;;;;2.55;1.52;;;24.30;34.80;;;;;;5094232;28;20203;-79
2022/07/16 10:23:38;;;;;;;6.00;1.80;;;24.10;34.70;;;;;;5093986;28;20196;-80
2022/07/16 10:26:07;;;;;;;2.25;1.50;;;24.30;34.30;;;;;;5093879;28;20664;-80
2022/07/16 10:28:39;;;;;;;4.03;1.67;;;24.30;34.60;;;;;;5094133;28;20254;-80
2022/07/16 10:31:36;;;;;;;2.10;1.30;;;24.50;33.80;;;;;;5093632;28;20207;-80
2022/07/16 10:34:39;;;;;;;1.90;1.58;;;24.80;32.80;;;;;;5093897;28;20196;-80
2022/07/16 10:37:13;;;;;;;2.72;1.55;;;24.40;34.10;;;;;;5090785;28;20610;-80
2022/07/16 10:40:00;;;;;;;2.72;1.70;;;25.60;32.80;;;;;;5093838;28;20618;-81
2022/07/16 10:42:28;;;;;;;2.30;1.45;;;25.80;31.40;;;;;;5093547;28;20239;-81
2022/07/16 10:44:55;;;;;;;2.70;1.58;;;26.10;31.00;;;;;;5093689;28;20196;-80
2022/07/16 10:47:41;;;;;;;2.17;1.60;;;25.60;31.20;;;;;;5093759;28;20288;-80
2022/07/16 10:50:19;;;;;;;3.83;1.50;;;25.70;30.80;;;;;;5093780;28;20200;-81
2022/07/16 10:52:49;;;;;;;3.20;1.30;;;26.90;30.60;;;;;;5093767;28;20655;-81
2022/07/16 10:55:40;;;;;;;3.15;1.50;;;27.90;29.50;;;;;;5094146;28;20291;-80
2022/07/16 10:58:07;;;;;;;3.58;1.60;;;27.70;28.60;;;;;;5094286;28;20204;-81
2022/07/16 11:00:33;;;;;;;1.70;1.33;;;28.20;28.20;;;;;;5093575;28;20196;-81
2022/07/16 11:03:04;;;;;;;6.95;1.70;;;28.40;27.90;;;;;;5093450;28;20226;-79
2022/07/16 11:05:32;;;;;;;3.55;1.55;;;28.50;27.50;;;;;;5093366;28;20203;-80
2022/07/16 11:08:11;;;;;;;5.63;1.60;;;27.50;28.60;;;;;;5093092;28;20298;-80
2022/07/16 11:10:40;;;;;;;3.80;1.30;;;26.80;28.80;;;;;;5093359;28;20203;-79
2022/07/16 11:13:12;;;;;;;6.95;1.77;;;27.80;28.20;;;;;;5093040;28;20231;-79
2022/07/16 11:15:39;;;;;;;2.22;1.23;;;28.40;27.20;;;;;;5093080;28;20234;-79
2022/07/16 11:18:15;;;;;;;5.97;1.60;;;28.30;27.00;;;;;;5093216;28;20269;-79
2022/07/16 11:20:42;;;;;;;2.83;1.50;;;29.10;26.60;;;;;;5093328;28;20204;-79
2022/07/16 11:23:11;;;;;;;2.83;1.50;;;30.20;25.40;;;;;;5092751;28;20644;-79
2022/07/16 11:25:53;;;;;;;2.35;1.50;;;28.30;25.90;;;;;;5093169;28;20200;-75
2022/07/16 11:28:20;;;;;;;6.18;1.80;;;28.50;26.60;;;;;;5093328;28;20208;-75
2022/07/16 11:31:03;;;;;;;3.55;1.60;;;29.30;25.40;;;;;;5093171;28;20205;-76
2022/07/16 11:33:34;;;;;;;2.17;1.77;;;28.10;25.60;;;;;;5093396;28;20228;-78
2022/07/16 11:36:08;;;;;;;2.38;1.60;;;27.40;26.40;;;;;;5093074;28;20223;-75
2022/07/16 11:38:36;;;;;;;3.58;1.77;;;27.00;27.20;;;;;;5089343;28;20251;-76
2022/07/16 11:41:03;;;;;;;3.08;1.75;;;28.80;26.50;;;;;;5073594;28;20197;-75
2022/07/16 11:43:30;;;;;;;3.97;1.70;;;29.20;24.30;;;;;;5114506;28;20280;-75
2022/07/16 11:45:57;;;;;;;2.38;1.63;;;28.40;25.30;;;;;;5118349;28;20191;-75
2022/07/16 11:48:24;;;;;;;2.58;1.70;;;29.60;24.60;;;;;;5118295;28;20340;-74
2022/07/16 11:50:53;;;;;;;3.45;1.80;;;30.50;24.10;;;;;;5119134;28;20276;-75
2022/07/16 11:53:31;;;;;;;5.03;2.10;;;30.20;23.20;;;;;;5117696;27;20278;-76
2022/07/16 11:55:59;;;;;;;3.28;2.13;;;28.80;24.50;;;;;;5107875;28;20533;-76
2022/07/16 11:58:26;;;;;;;2.90;2.17;;;28.50;25.30;;;;;;5076398;28;20258;-75
2022/07/16 12:00:53;;;;;;;3.03;1.75;;;28.60;25.00;;;;;;5076440;28;20193;-76
2022/07/16 12:03:19;;;;;;;3.88;2.05;;;28.50;25.30;;;;;;5076084;28;20236;-77
2022/07/16 12:05:46;;;;;;;2.33;1.60;;;30.60;23.80;;;;;;5076406;28;20197;-76
2022/07/16 12:08:13;;;;;;;3.28;1.90;;;30.40;23.00;;;;;;5076080;28;20687;-76
2022/07/16 12:10:40;;;;;;;2.33;1.77;;;29.20;24.10;;;;;;5076451;28;20278;-76
2022/07/16 12:13:10;;;;;;;1.92;1.60;;;28.10;24.20;;;;;;5076105;28;20205;-76
2022/07/16 12:15:52;;;;;;;4.35;1.80;;;28.20;25.20;;;;;;5076041;28;20197;-76
2022/07/16 12:18:20;;;;;;;6.40;1.92;;;28.80;24.00;;;;;;5076044;28;20275;-77
2022/07/16 12:20:48;;;;;;;2.20;2.00;;;27.90;24.50;;;;;;5076031;28;20242;-76
2022/07/16 12:23:30;;;;;;;3.25;1.80;;;29.90;23.60;;;;;;5075880;28;20290;-75
2022/07/16 12:26:01;;;;;;;5.00;1.92;;;30.00;23.30;;;;;;5075285;28;20266;-76
2022/07/16 12:28:30;;;;;;;2.03;1.83;;;28.20;24.20;;;;;;5075907;28;20537;-76
2022/07/16 12:30:58;;;;;;;6.05;2.00;;;28.80;24.50;;;;;;5075956;28;20200;-75
2022/07/16 12:33:27;;;;;;;3.38;2.00;;;30.50;23.40;;;;;;5076085;28;20205;-76
2022/07/16 12:35:59;;;;;;;2.70;2.03;;;31.00;22.20;;;;;;5075879;28;20197;-76
2022/07/16 12:38:47;;;;;;;2.50;1.92;;;31.00;21.80;;;;;;5075585;28;20232;-77
2022/07/16 12:41:16;;;;;;;3.25;1.85;;;29.70;22.10;;;;;;5075774;28;20239;-76
2022/07/16 12:43:48;;;;;;;6.00;2.10;;;29.20;22.90;;;;;;5075458;28;20589;-77
2022/07/16 12:46:15;;;;;;;4.25;2.05;;;29.00;23.10;;;;;;5075797;28;20193;-75
2022/07/16 12:48:44;;;;;;;4.57;1.83;;;29.80;22.90;;;;;;5073672;28;20199;-75
2022/07/16 12:51:12;;;;;;;4.20;2.13;;;30.90;22.30;;;;;;5075643;28;20234;-77
2022/07/16 12:53:39;;;;;;;4.78;1.88;;;31.80;22.20;;;;;;5074987;28;20203;-77
2022/07/16 12:58:52;;;;;;;3.50;1.80;;;31.10;21.10;;;;;;5075981;28;20706;-74
2022/07/16 13:01:21;;;;;;;1.95;1.83;;;29.20;21.90;;;;;;5075896;28;20262;-76
2022/07/16 13:03:49;;;;;;;2.85;1.80;;;28.60;22.80;;;;;;5075598;28;20228;-75